sensor_id;sensor_type;location;lat;lon;timestamp;temperature;humidity
18412;DHT22;27097;51.738;19.472;2022-08-18T00:01:41;26.70;70.90
18412;DHT22;27097;51.738;19.472;2022-08-18T00:04:08;26.70;70.90
18412;DHT22;27097;51.738;19.472;2022-08-18T00:06:36;26.70;71.10
18412;DHT22;27097;51.738;19.472;2022-08-18T00:09:07;26.60;71.00
18412;DHT22;27097;51.738;19.472;2022-08-18T00:11:36;26.60;71.50
18412;DHT22;27097;51.738;19.472;2022-08-18T00:14:04;26.60;71.60
18412;DHT22;27097;51.738;19.472;2022-08-18T00:16:33;26.60;71.50
18412;DHT22;27097;51.738;19.472;2022-08-18T00:18:59;26.60;71.50
18412;DHT22;27097;51.738;19.472;2022-08-18T00:21:27;26.60;71.50
18412;DHT22;27097;51.738;19.472;2022-08-18T00:23:54;26.60;71.50
18412;DHT22;27097;51.738;19.472;2022-08-18T00:26:21;26.60;71.60
18412;DHT22;27097;51.738;19.472;2022-08-18T00:28:48;26.60;71.80
18412;DHT22;27097;51.738;19.472;2022-08-18T00:31:15;26.50;71.80
18412;DHT22;27097;51.738;19.472;2022-08-18T00:33:43;26.50;71.90
18412;DHT22;27097;51.738;19.472;2022-08-18T00:36:10;26.50;72.10
18412;DHT22;27097;51.738;19.472;2022-08-18T00:38:38;26.50;72.00
18412;DHT22;27097;51.738;19.472;2022-08-18T00:41:06;26.50;72.10
18412;DHT22;27097;51.738;19.472;2022-08-18T00:43:37;26.50;72.20
18412;DHT22;27097;51.738;19.472;2022-08-18T00:46:07;26.50;72.40
18412;DHT22;27097;51.738;19.472;2022-08-18T00:48:35;26.50;72.50
18412;DHT22;27097;51.738;19.472;2022-08-18T00:51:07;26.50;72.50
18412;DHT22;27097;51.738;19.472;2022-08-18T00:53:38;26.50;72.50
18412;DHT22;27097;51.738;19.472;2022-08-18T00:56:10;26.50;72.60
18412;DHT22;27097;51.738;19.472;2022-08-18T00:58:42;26.50;72.50
18412;DHT22;27097;51.738;19.472;2022-08-18T01:01:11;26.50;72.70
18412;DHT22;27097;51.738;19.472;2022-08-18T01:03:39;26.50;72.60
18412;DHT22;27097;51.738;19.472;2022-08-18T01:06:13;26.50;72.70
18412;DHT22;27097;51.738;19.472;2022-08-18T01:08:42;26.40;72.60
18412;DHT22;27097;51.738;19.472;2022-08-18T01:11:09;26.40;72.80
18412;DHT22;27097;51.738;19.472;2022-08-18T01:13:38;26.40;72.90
18412;DHT22;27097;51.738;19.472;2022-08-18T01:16:07;26.40;72.90
18412;DHT22;27097;51.738;19.472;2022-08-18T01:18:48;26.30;72.90
18412;DHT22;27097;51.738;19.472;2022-08-18T01:21:36;26.30;72.90
18412;DHT22;27097;51.738;19.472;2022-08-18T01:24:22;26.30;73.10
18412;DHT22;27097;51.738;19.472;2022-08-18T01:27:12;26.30;73.10
18412;DHT22;27097;51.738;19.472;2022-08-18T01:29:42;26.30;73.20
18412;DHT22;27097;51.738;19.472;2022-08-18T01:32:10;26.30;73.20
18412;DHT22;27097;51.738;19.472;2022-08-18T01:34:38;26.30;73.00
18412;DHT22;27097;51.738;19.472;2022-08-18T01:37:05;26.30;73.00
18412;DHT22;27097;51.738;19.472;2022-08-18T01:39:33;26.30;73.10
18412;DHT22;27097;51.738;19.472;2022-08-18T01:42:00;26.30;73.30
18412;DHT22;27097;51.738;19.472;2022-08-18T01:44:29;26.20;73.50
18412;DHT22;27097;51.738;19.472;2022-08-18T01:46:56;26.20;73.50
18412;DHT22;27097;51.738;19.472;2022-08-18T01:49:23;26.20;73.80
18412;DHT22;27097;51.738;19.472;2022-08-18T01:51:53;26.20;73.60
18412;DHT22;27097;51.738;19.472;2022-08-18T01:54:21;26.20;73.60
18412;DHT22;27097;51.738;19.472;2022-08-18T01:56:49;26.20;73.50
18412;DHT22;27097;51.738;19.472;2022-08-18T01:59:17;26.20;73.60
18412;DHT22;27097;51.738;19.472;2022-08-18T02:01:46;26.20;73.80
18412;DHT22;27097;51.738;19.472;2022-08-18T02:04:14;26.20;74.00
18412;DHT22;27097;51.738;19.472;2022-08-18T02:06:41;26.20;74.00
18412;DHT22;27097;51.738;19.472;2022-08-18T02:09:09;26.20;74.00
18412;DHT22;27097;51.738;19.472;2022-08-18T02:11:36;26.20;73.90
18412;DHT22;27097;51.738;19.472;2022-08-18T02:14:04;26.20;73.80
18412;DHT22;27097;51.738;19.472;2022-08-18T02:16:31;26.20;73.60
18412;DHT22;27097;51.738;19.472;2022-08-18T02:18:59;26.20;73.70
18412;DHT22;27097;51.738;19.472;2022-08-18T02:21:26;26.20;73.70
18412;DHT22;27097;51.738;19.472;2022-08-18T02:23:53;26.10;73.70
18412;DHT22;27097;51.738;19.472;2022-08-18T02:26:20;26.10;73.80
18412;DHT22;27097;51.738;19.472;2022-08-18T02:28:48;26.10;73.70
18412;DHT22;27097;51.738;19.472;2022-08-18T02:31:19;26.10;73.90
18412;DHT22;27097;51.738;19.472;2022-08-18T02:33:47;26.10;74.10
18412;DHT22;27097;51.738;19.472;2022-08-18T02:36:15;26.10;73.80
18412;DHT22;27097;51.738;19.472;2022-08-18T02:38:43;26.10;74.00
18412;DHT22;27097;51.738;19.472;2022-08-18T02:41:11;26.10;73.80
18412;DHT22;27097;51.738;19.472;2022-08-18T02:43:39;26.10;74.00
18412;DHT22;27097;51.738;19.472;2022-08-18T02:46:08;26.10;74.10
18412;DHT22;27097;51.738;19.472;2022-08-18T02:48:36;26.10;74.00
18412;DHT22;27097;51.738;19.472;2022-08-18T02:51:04;26.10;74.10
18412;DHT22;27097;51.738;19.472;2022-08-18T02:53:32;26.10;73.80
18412;DHT22;27097;51.738;19.472;2022-08-18T02:56:06;26.10;73.70
18412;DHT22;27097;51.738;19.472;2022-08-18T02:58:48;26.10;73.70
18412;DHT22;27097;51.738;19.472;2022-08-18T03:01:15;26.10;73.90
18412;DHT22;27097;51.738;19.472;2022-08-18T03:03:43;26.10;73.80
18412;DHT22;27097;51.738;19.472;2022-08-18T03:06:10;26.10;73.60
18412;DHT22;27097;51.738;19.472;2022-08-18T03:08:37;26.10;73.60
18412;DHT22;27097;51.738;19.472;2022-08-18T03:11:04;26.10;73.70
18412;DHT22;27097;51.738;19.472;2022-08-18T03:13:31;26.10;73.60
18412;DHT22;27097;51.738;19.472;2022-08-18T03:15:58;26.10;73.50
18412;DHT22;27097;51.738;19.472;2022-08-18T03:18:25;26.10;73.20
18412;DHT22;27097;51.738;19.472;2022-08-18T03:20:53;26.10;73.40
18412;DHT22;27097;51.738;19.472;2022-08-18T03:23:26;26.10;73.40
18412;DHT22;27097;51.738;19.472;2022-08-18T03:25:54;26.10;73.40
18412;DHT22;27097;51.738;19.472;2022-08-18T03:28:21;26.10;73.40
18412;DHT22;27097;51.738;19.472;2022-08-18T03:30:48;26.10;73.40
18412;DHT22;27097;51.738;19.472;2022-08-18T03:33:15;26.10;73.40
18412;DHT22;27097;51.738;19.472;2022-08-18T03:35:42;26.10;73.40
18412;DHT22;27097;51.738;19.472;2022-08-18T03:38:10;26.00;73.30
18412;DHT22;27097;51.738;19.472;2022-08-18T03:40:37;26.10;73.40
18412;DHT22;27097;51.738;19.472;2022-08-18T03:43:05;26.10;73.40
18412;DHT22;27097;51.738;19.472;2022-08-18T03:45:33;26.10;73.30
18412;DHT22;27097;51.738;19.472;2022-08-18T03:48:00;26.00;73.00
18412;DHT22;27097;51.738;19.472;2022-08-18T03:50:28;26.00;73.20
18412;DHT22;27097;51.738;19.472;2022-08-18T03:52:56;26.00;73.20
18412;DHT22;27097;51.738;19.472;2022-08-18T03:55:26;26.00;73.40
18412;DHT22;27097;51.738;19.472;2022-08-18T03:57:57;26.00;73.20
18412;DHT22;27097;51.738;19.472;2022-08-18T04:00:27;26.00;73.10
18412;DHT22;27097;51.738;19.472;2022-08-18T04:02:54;26.00;73.10
18412;DHT22;27097;51.738;19.472;2022-08-18T04:05:22;26.00;73.20
18412;DHT22;27097;51.738;19.472;2022-08-18T04:07:48;26.00;73.50
18412;DHT22;27097;51.738;19.472;2022-08-18T04:10:15;26.00;73.40
18412;DHT22;27097;51.738;19.472;2022-08-18T04:12:44;26.00;73.50
18412;DHT22;27097;51.738;19.472;2022-08-18T04:15:11;26.00;73.40
18412;DHT22;27097;51.738;19.472;2022-08-18T04:17:38;26.00;73.40
18412;DHT22;27097;51.738;19.472;2022-08-18T04:20:05;26.00;73.30
18412;DHT22;27097;51.738;19.472;2022-08-18T04:22:32;26.00;73.40
18412;DHT22;27097;51.738;19.472;2022-08-18T04:24:59;26.00;73.30
18412;DHT22;27097;51.738;19.472;2022-08-18T04:27:27;26.00;73.20
18412;DHT22;27097;51.738;19.472;2022-08-18T04:29:56;26.00;73.20
18412;DHT22;27097;51.738;19.472;2022-08-18T04:32:23;26.10;73.30
18412;DHT22;27097;51.738;19.472;2022-08-18T04:34:50;26.10;73.20
18412;DHT22;27097;51.738;19.472;2022-08-18T04:37:17;26.10;73.20
18412;DHT22;27097;51.738;19.472;2022-08-18T04:39:45;26.00;73.20
18412;DHT22;27097;51.738;19.472;2022-08-18T04:42:12;26.10;73.40
18412;DHT22;27097;51.738;19.472;2022-08-18T04:44:39;26.10;73.60
18412;DHT22;27097;51.738;19.472;2022-08-18T04:47:08;26.10;74.10
18412;DHT22;27097;51.738;19.472;2022-08-18T04:49:36;26.10;73.00
18412;DHT22;27097;51.738;19.472;2022-08-18T04:52:05;26.10;73.10
18412;DHT22;27097;51.738;19.472;2022-08-18T04:54:50;26.10;73.20
18412;DHT22;27097;51.738;19.472;2022-08-18T04:57:18;26.10;73.20
18412;DHT22;27097;51.738;19.472;2022-08-18T04:59:47;26.20;73.00
18412;DHT22;27097;51.738;19.472;2022-08-18T05:02:17;26.20;72.80
18412;DHT22;27097;51.738;19.472;2022-08-18T05:04:44;26.20;72.60
18412;DHT22;27097;51.738;19.472;2022-08-18T05:07:13;26.20;72.80
18412;DHT22;27097;51.738;19.472;2022-08-18T05:09:41;26.30;72.50
18412;DHT22;27097;51.738;19.472;2022-08-18T05:12:10;26.30;72.50
18412;DHT22;27097;51.738;19.472;2022-08-18T05:14:38;26.30;72.10
18412;DHT22;27097;51.738;19.472;2022-08-18T05:17:05;26.30;71.80
18412;DHT22;27097;51.738;19.472;2022-08-18T05:19:33;26.30;72.00
18412;DHT22;27097;51.738;19.472;2022-08-18T05:22:00;26.40;72.00
18412;DHT22;27097;51.738;19.472;2022-08-18T05:24:29;26.40;71.80
18412;DHT22;27097;51.738;19.472;2022-08-18T05:26:57;26.40;71.90
18412;DHT22;27097;51.738;19.472;2022-08-18T05:29:24;26.40;71.90
18412;DHT22;27097;51.738;19.472;2022-08-18T05:31:52;26.50;71.80
18412;DHT22;27097;51.738;19.472;2022-08-18T05:34:20;26.50;71.90
18412;DHT22;27097;51.738;19.472;2022-08-18T05:37:13;26.50;72.00
18412;DHT22;27097;51.738;19.472;2022-08-18T05:39:49;26.50;71.80
18412;DHT22;27097;51.738;19.472;2022-08-18T05:42:20;26.60;72.30
18412;DHT22;27097;51.738;19.472;2022-08-18T05:44:50;26.60;71.80
18412;DHT22;27097;51.738;19.472;2022-08-18T05:47:22;26.60;72.30
18412;DHT22;27097;51.738;19.472;2022-08-18T05:49:50;26.60;72.40
18412;DHT22;27097;51.738;19.472;2022-08-18T05:52:26;26.60;71.60
18412;DHT22;27097;51.738;19.472;2022-08-18T05:54:57;26.70;71.70
18412;DHT22;27097;51.738;19.472;2022-08-18T05:57:50;26.70;71.60
18412;DHT22;27097;51.738;19.472;2022-08-18T06:00:18;26.70;72.00
18412;DHT22;27097;51.738;19.472;2022-08-18T06:02:52;26.70;72.50
18412;DHT22;27097;51.738;19.472;2022-08-18T06:05:26;26.70;73.00
18412;DHT22;27097;51.738;19.472;2022-08-18T06:07:58;26.80;72.20
18412;DHT22;27097;51.738;19.472;2022-08-18T06:10:25;26.80;72.90
18412;DHT22;27097;51.738;19.472;2022-08-18T06:12:56;26.80;71.40
18412;DHT22;27097;51.738;19.472;2022-08-18T06:15:28;26.80;72.00
18412;DHT22;27097;51.738;19.472;2022-08-18T06:18:20;26.80;72.20
18412;DHT22;27097;51.738;19.472;2022-08-18T06:21:09;26.80;72.50
18412;DHT22;27097;51.738;19.472;2022-08-18T06:23:53;26.90;72.10
18412;DHT22;27097;51.738;19.472;2022-08-18T06:26:29;26.90;72.90
18412;DHT22;27097;51.738;19.472;2022-08-18T06:29:05;26.90;73.10
18412;DHT22;27097;51.738;19.472;2022-08-18T06:31:40;27.00;73.20
18412;DHT22;27097;51.738;19.472;2022-08-18T06:34:17;27.00;73.90
18412;DHT22;27097;51.738;19.472;2022-08-18T06:36:51;27.00;74.30
18412;DHT22;27097;51.738;19.472;2022-08-18T06:39:25;27.00;73.70
18412;DHT22;27097;51.738;19.472;2022-08-18T06:41:54;27.10;73.40
18412;DHT22;27097;51.738;19.472;2022-08-18T06:44:28;27.10;73.70
18412;DHT22;27097;51.738;19.472;2022-08-18T06:46:58;27.10;73.30
18412;DHT22;27097;51.738;19.472;2022-08-18T06:49:38;27.10;72.90
18412;DHT22;27097;51.738;19.472;2022-08-18T06:52:21;27.10;72.80
18412;DHT22;27097;51.738;19.472;2022-08-18T06:54:52;27.10;72.70
18412;DHT22;27097;51.738;19.472;2022-08-18T06:57:23;27.10;72.50
18412;DHT22;27097;51.738;19.472;2022-08-18T07:00:02;27.10;71.50
18412;DHT22;27097;51.738;19.472;2022-08-18T07:02:42;27.10;71.60
18412;DHT22;27097;51.738;19.472;2022-08-18T07:05:23;27.10;73.00
18412;DHT22;27097;51.738;19.472;2022-08-18T07:08:11;27.20;72.20
18412;DHT22;27097;51.738;19.472;2022-08-18T07:10:42;27.20;72.20
18412;DHT22;27097;51.738;19.472;2022-08-18T07:13:20;27.30;73.10
18412;DHT22;27097;51.738;19.472;2022-08-18T07:15:48;27.30;72.80
18412;DHT22;27097;51.738;19.472;2022-08-18T07:18:22;27.30;73.50
18412;DHT22;27097;51.738;19.472;2022-08-18T07:20:51;27.40;72.70
18412;DHT22;27097;51.738;19.472;2022-08-18T07:23:29;27.40;72.50
18412;DHT22;27097;51.738;19.472;2022-08-18T07:26:08;27.40;71.20
18412;DHT22;27097;51.738;19.472;2022-08-18T07:28:38;27.40;71.90
18412;DHT22;27097;51.738;19.472;2022-08-18T07:31:28;27.40;72.00
18412;DHT22;27097;51.738;19.472;2022-08-18T07:33:59;27.50;72.30
18412;DHT22;27097;51.738;19.472;2022-08-18T07:36:31;27.40;72.30
18412;DHT22;27097;51.738;19.472;2022-08-18T07:39:03;27.40;71.20
18412;DHT22;27097;51.738;19.472;2022-08-18T07:41:38;27.40;71.60
18412;DHT22;27097;51.738;19.472;2022-08-18T07:44:14;27.40;71.20
18412;DHT22;27097;51.738;19.472;2022-08-18T07:46:51;27.40;71.20
18412;DHT22;27097;51.738;19.472;2022-08-18T07:49:22;27.40;70.00
18412;DHT22;27097;51.738;19.472;2022-08-18T07:51:55;27.40;69.00
18412;DHT22;27097;51.738;19.472;2022-08-18T07:54:35;27.50;68.80
18412;DHT22;27097;51.738;19.472;2022-08-18T07:57:12;27.50;68.70
18412;DHT22;27097;51.738;19.472;2022-08-18T07:59:48;27.50;69.50
18412;DHT22;27097;51.738;19.472;2022-08-18T08:02:27;27.60;68.90
18412;DHT22;27097;51.738;19.472;2022-08-18T08:05:06;27.60;69.40
18412;DHT22;27097;51.738;19.472;2022-08-18T08:07:40;27.60;69.50
18412;DHT22;27097;51.738;19.472;2022-08-18T08:10:24;27.60;68.50
18412;DHT22;27097;51.738;19.472;2022-08-18T08:13:01;27.60;68.40
18412;DHT22;27097;51.738;19.472;2022-08-18T08:15:35;27.60;68.80
18412;DHT22;27097;51.738;19.472;2022-08-18T08:18:10;27.60;68.70
18412;DHT22;27097;51.738;19.472;2022-08-18T08:20:43;27.60;68.40
18412;DHT22;27097;51.738;19.472;2022-08-18T08:23:20;27.70;68.80
18412;DHT22;27097;51.738;19.472;2022-08-18T08:26:16;27.70;68.70
18412;DHT22;27097;51.738;19.472;2022-08-18T08:28:52;27.70;67.90
18412;DHT22;27097;51.738;19.472;2022-08-18T08:31:28;27.70;66.80
18412;DHT22;27097;51.738;19.472;2022-08-18T08:34:00;27.80;67.30
18412;DHT22;27097;51.738;19.472;2022-08-18T08:36:31;27.80;67.80
18412;DHT22;27097;51.738;19.472;2022-08-18T08:39:02;27.80;66.10
18412;DHT22;27097;51.738;19.472;2022-08-18T08:41:36;27.80;65.30
18412;DHT22;27097;51.738;19.472;2022-08-18T08:44:10;27.90;66.20
18412;DHT22;27097;51.738;19.472;2022-08-18T08:46:45;27.90;66.20
18412;DHT22;27097;51.738;19.472;2022-08-18T08:49:24;27.90;67.20
18412;DHT22;27097;51.738;19.472;2022-08-18T08:51:55;27.90;66.50
18412;DHT22;27097;51.738;19.472;2022-08-18T08:54:28;28.00;65.20
18412;DHT22;27097;51.738;19.472;2022-08-18T08:56:59;28.00;65.50
18412;DHT22;27097;51.738;19.472;2022-08-18T08:59:28;28.10;65.70
18412;DHT22;27097;51.738;19.472;2022-08-18T09:02:05;28.10;64.40
18412;DHT22;27097;51.738;19.472;2022-08-18T09:04:45;28.10;64.00
18412;DHT22;27097;51.738;19.472;2022-08-18T09:07:25;28.10;63.80
18412;DHT22;27097;51.738;19.472;2022-08-18T09:10:14;28.10;64.10
18412;DHT22;27097;51.738;19.472;2022-08-18T09:13:00;28.10;64.80
18412;DHT22;27097;51.738;19.472;2022-08-18T09:15:41;28.10;65.00
18412;DHT22;27097;51.738;19.472;2022-08-18T09:21:20;28.10;64.90
18412;DHT22;27097;51.738;19.472;2022-08-18T09:23:52;28.10;63.80
18412;DHT22;27097;51.738;19.472;2022-08-18T09:26:37;28.20;63.60
18412;DHT22;27097;51.738;19.472;2022-08-18T09:29:14;28.20;62.90
18412;DHT22;27097;51.738;19.472;2022-08-18T09:31:44;28.20;64.10
18412;DHT22;27097;51.738;19.472;2022-08-18T09:34:23;28.30;62.30
18412;DHT22;27097;51.738;19.472;2022-08-18T09:37:02;28.30;63.10
18412;DHT22;27097;51.738;19.472;2022-08-18T09:39:34;28.30;63.60
18412;DHT22;27097;51.738;19.472;2022-08-18T09:42:31;28.30;62.40
18412;DHT22;27097;51.738;19.472;2022-08-18T09:45:09;28.40;62.60
18412;DHT22;27097;51.738;19.472;2022-08-18T09:47:57;28.30;62.60
18412;DHT22;27097;51.738;19.472;2022-08-18T09:50:35;28.40;62.50
18412;DHT22;27097;51.738;19.472;2022-08-18T09:53:19;28.30;63.00
18412;DHT22;27097;51.738;19.472;2022-08-18T09:55:57;28.30;62.80
18412;DHT22;27097;51.738;19.472;2022-08-18T09:58:47;28.40;62.50
18412;DHT22;27097;51.738;19.472;2022-08-18T10:01:30;28.40;63.10
18412;DHT22;27097;51.738;19.472;2022-08-18T10:04:33;28.40;62.80
18412;DHT22;27097;51.738;19.472;2022-08-18T10:07:16;28.30;63.10
18412;DHT22;27097;51.738;19.472;2022-08-18T10:09:51;28.30;62.50
18412;DHT22;27097;51.738;19.472;2022-08-18T10:21:01;28.40;62.70
18412;DHT22;27097;51.738;19.472;2022-08-18T10:23:53;28.40;62.60
18412;DHT22;27097;51.738;19.472;2022-08-18T10:29:52;28.40;62.90
18412;DHT22;27097;51.738;19.472;2022-08-18T10:32:39;28.40;62.80
18412;DHT22;27097;51.738;19.472;2022-08-18T10:38:11;28.40;60.60
18412;DHT22;27097;51.738;19.472;2022-08-18T10:40:39;28.50;61.00
18412;DHT22;27097;51.738;19.472;2022-08-18T10:43:09;28.50;60.00
18412;DHT22;27097;51.738;19.472;2022-08-18T10:45:43;28.50;60.00
18412;DHT22;27097;51.738;19.472;2022-08-18T10:48:17;28.50;60.40
18412;DHT22;27097;51.738;19.472;2022-08-18T10:50:55;28.50;60.50
18412;DHT22;27097;51.738;19.472;2022-08-18T10:53:34;28.50;60.20
18412;DHT22;27097;51.738;19.472;2022-08-18T10:56:08;28.50;60.10
18412;DHT22;27097;51.738;19.472;2022-08-18T10:58:46;28.50;60.10
18412;DHT22;27097;51.738;19.472;2022-08-18T11:01:25;28.50;59.50
18412;DHT22;27097;51.738;19.472;2022-08-18T11:04:03;28.60;60.00
18412;DHT22;27097;51.738;19.472;2022-08-18T11:06:37;28.50;60.10
18412;DHT22;27097;51.738;19.472;2022-08-18T11:09:08;28.60;60.10
18412;DHT22;27097;51.738;19.472;2022-08-18T11:11:38;28.50;60.50
18412;DHT22;27097;51.738;19.472;2022-08-18T11:14:21;28.60;59.50
18412;DHT22;27097;51.738;19.472;2022-08-18T11:16:57;28.60;59.40
18412;DHT22;27097;51.738;19.472;2022-08-18T11:19:27;28.60;59.20
18412;DHT22;27097;51.738;19.472;2022-08-18T11:22:00;28.60;59.40
18412;DHT22;27097;51.738;19.472;2022-08-18T11:24:30;28.60;59.10
18412;DHT22;27097;51.738;19.472;2022-08-18T11:27:01;28.60;58.70
18412;DHT22;27097;51.738;19.472;2022-08-18T11:29:31;28.70;58.00
18412;DHT22;27097;51.738;19.472;2022-08-18T11:32:03;28.70;57.80
18412;DHT22;27097;51.738;19.472;2022-08-18T11:34:36;28.70;58.10
18412;DHT22;27097;51.738;19.472;2022-08-18T11:37:06;28.70;59.20
18412;DHT22;27097;51.738;19.472;2022-08-18T11:39:42;28.70;59.30
18412;DHT22;27097;51.738;19.472;2022-08-18T11:42:15;28.70;59.50
18412;DHT22;27097;51.738;19.472;2022-08-18T11:44:43;28.70;59.50
18412;DHT22;27097;51.738;19.472;2022-08-18T11:47:14;28.70;59.70
18412;DHT22;27097;51.738;19.472;2022-08-18T11:49:51;28.70;59.30
18412;DHT22;27097;51.738;19.472;2022-08-18T11:52:21;28.70;59.10
18412;DHT22;27097;51.738;19.472;2022-08-18T11:54:51;28.70;60.10
18412;DHT22;27097;51.738;19.472;2022-08-18T11:57:29;28.60;60.50
18412;DHT22;27097;51.738;19.472;2022-08-18T11:59:57;28.70;60.60
18412;DHT22;27097;51.738;19.472;2022-08-18T12:02:25;28.70;60.50
18412;DHT22;27097;51.738;19.472;2022-08-18T12:04:54;28.80;59.90
18412;DHT22;27097;51.738;19.472;2022-08-18T12:07:30;28.90;59.40
18412;DHT22;27097;51.738;19.472;2022-08-18T12:10:19;29.00;59.30
18412;DHT22;27097;51.738;19.472;2022-08-18T12:12:49;29.00;58.90
18412;DHT22;27097;51.738;19.472;2022-08-18T12:15:26;28.90;58.10
18412;DHT22;27097;51.738;19.472;2022-08-18T12:17:54;28.80;58.70
18412;DHT22;27097;51.738;19.472;2022-08-18T12:20:21;28.80;59.10
18412;DHT22;27097;51.738;19.472;2022-08-18T12:22:48;28.80;58.80
18412;DHT22;27097;51.738;19.472;2022-08-18T12:25:18;28.80;58.80
18412;DHT22;27097;51.738;19.472;2022-08-18T12:27:45;28.80;58.70
18412;DHT22;27097;51.738;19.472;2022-08-18T12:30:12;28.80;59.70
18412;DHT22;27097;51.738;19.472;2022-08-18T12:32:39;28.80;59.30
18412;DHT22;27097;51.738;19.472;2022-08-18T12:35:08;28.80;59.60
18412;DHT22;27097;51.738;19.472;2022-08-18T12:37:39;28.80;58.80
18412;DHT22;27097;51.738;19.472;2022-08-18T12:40:08;28.70;59.00
18412;DHT22;27097;51.738;19.472;2022-08-18T12:42:38;28.70;60.00
18412;DHT22;27097;51.738;19.472;2022-08-18T12:45:06;28.70;60.10
18412;DHT22;27097;51.738;19.472;2022-08-18T12:47:37;28.60;60.00
18412;DHT22;27097;51.738;19.472;2022-08-18T12:50:06;28.60;59.50
18412;DHT22;27097;51.738;19.472;2022-08-18T12:52:33;28.60;59.70
18412;DHT22;27097;51.738;19.472;2022-08-18T12:55:00;28.60;59.40
18412;DHT22;27097;51.738;19.472;2022-08-18T12:57:27;28.60;59.00
18412;DHT22;27097;51.738;19.472;2022-08-18T12:59:56;28.60;59.30
18412;DHT22;27097;51.738;19.472;2022-08-18T13:02:22;28.60;58.40
18412;DHT22;27097;51.738;19.472;2022-08-18T13:04:49;28.60;58.50
18412;DHT22;27097;51.738;19.472;2022-08-18T13:07:17;28.70;57.20
18412;DHT22;27097;51.738;19.472;2022-08-18T13:09:44;28.70;57.80
18412;DHT22;27097;51.738;19.472;2022-08-18T13:12:12;28.90;56.80
18412;DHT22;27097;51.738;19.472;2022-08-18T13:14:39;29.00;56.50
18412;DHT22;27097;51.738;19.472;2022-08-18T13:17:07;29.00;57.00
18412;DHT22;27097;51.738;19.472;2022-08-18T13:19:34;29.00;56.60
18412;DHT22;27097;51.738;19.472;2022-08-18T13:22:02;28.90;56.50
18412;DHT22;27097;51.738;19.472;2022-08-18T13:24:29;28.90;56.20
18412;DHT22;27097;51.738;19.472;2022-08-18T13:26:56;28.80;57.70
18412;DHT22;27097;51.738;19.472;2022-08-18T13:29:23;28.70;57.70
18412;DHT22;27097;51.738;19.472;2022-08-18T13:31:50;28.70;58.40
18412;DHT22;27097;51.738;19.472;2022-08-18T13:34:24;28.70;58.50
18412;DHT22;27097;51.738;19.472;2022-08-18T13:36:52;28.60;57.90
18412;DHT22;27097;51.738;19.472;2022-08-18T13:39:20;28.60;57.50
18412;DHT22;27097;51.738;19.472;2022-08-18T13:41:49;28.60;57.60
18412;DHT22;27097;51.738;19.472;2022-08-18T13:44:17;28.60;58.70
18412;DHT22;27097;51.738;19.472;2022-08-18T13:46:46;28.60;58.40
18412;DHT22;27097;51.738;19.472;2022-08-18T13:49:13;28.60;58.60
18412;DHT22;27097;51.738;19.472;2022-08-18T13:51:43;28.60;58.80
18412;DHT22;27097;51.738;19.472;2022-08-18T13:54:17;28.60;58.80
18412;DHT22;27097;51.738;19.472;2022-08-18T13:56:44;28.50;58.40
18412;DHT22;27097;51.738;19.472;2022-08-18T13:59:11;28.50;59.00
18412;DHT22;27097;51.738;19.472;2022-08-18T14:01:39;28.50;59.10
18412;DHT22;27097;51.738;19.472;2022-08-18T14:04:06;28.50;59.30
18412;DHT22;27097;51.738;19.472;2022-08-18T14:06:33;28.50;59.40
18412;DHT22;27097;51.738;19.472;2022-08-18T14:09:02;28.50;58.40
18412;DHT22;27097;51.738;19.472;2022-08-18T14:11:30;28.50;58.30
18412;DHT22;27097;51.738;19.472;2022-08-18T14:13:59;28.50;58.60
18412;DHT22;27097;51.738;19.472;2022-08-18T14:16:26;28.50;58.90
18412;DHT22;27097;51.738;19.472;2022-08-18T14:18:53;28.60;59.30
18412;DHT22;27097;51.738;19.472;2022-08-18T14:21:41;28.50;59.10
18412;DHT22;27097;51.738;19.472;2022-08-18T14:24:27;28.60;59.20
18412;DHT22;27097;51.738;19.472;2022-08-18T14:27:12;28.50;59.60
18412;DHT22;27097;51.738;19.472;2022-08-18T14:29:39;28.50;59.60
18412;DHT22;27097;51.738;19.472;2022-08-18T14:32:08;28.50;59.80
18412;DHT22;27097;51.738;19.472;2022-08-18T14:34:35;28.50;59.40
18412;DHT22;27097;51.738;19.472;2022-08-18T14:37:03;28.50;59.50
18412;DHT22;27097;51.738;19.472;2022-08-18T14:39:31;28.50;60.00
18412;DHT22;27097;51.738;19.472;2022-08-18T14:41:58;28.50;60.10
18412;DHT22;27097;51.738;19.472;2022-08-18T14:44:25;28.50;60.00
18412;DHT22;27097;51.738;19.472;2022-08-18T14:46:52;28.50;59.60
18412;DHT22;27097;51.738;19.472;2022-08-18T14:49:22;28.40;60.00
18412;DHT22;27097;51.738;19.472;2022-08-18T14:51:49;28.50;60.20
18412;DHT22;27097;51.738;19.472;2022-08-18T14:54:15;28.50;59.80
18412;DHT22;27097;51.738;19.472;2022-08-18T14:56:44;28.50;59.20
18412;DHT22;27097;51.738;19.472;2022-08-18T14:59:11;28.50;57.40
18412;DHT22;27097;51.738;19.472;2022-08-18T15:01:38;28.50;58.40
18412;DHT22;27097;51.738;19.472;2022-08-18T15:04:05;28.50;57.80
18412;DHT22;27097;51.738;19.472;2022-08-18T15:06:32;28.50;57.80
18412;DHT22;27097;51.738;19.472;2022-08-18T15:08:59;28.50;57.40
18412;DHT22;27097;51.738;19.472;2022-08-18T15:11:26;28.50;57.00
18412;DHT22;27097;51.738;19.472;2022-08-18T15:13:54;28.50;56.80
18412;DHT22;27097;51.738;19.472;2022-08-18T15:16:21;28.50;56.80
18412;DHT22;27097;51.738;19.472;2022-08-18T15:18:48;28.60;57.00
18412;DHT22;27097;51.738;19.472;2022-08-18T15:21:15;28.60;57.10
18412;DHT22;27097;51.738;19.472;2022-08-18T15:24:00;28.50;57.30
18412;DHT22;27097;51.738;19.472;2022-08-18T15:26:44;28.50;57.70
18412;DHT22;27097;51.738;19.472;2022-08-18T15:29:13;28.50;56.90
18412;DHT22;27097;51.738;19.472;2022-08-18T15:31:40;28.50;57.20
18412;DHT22;27097;51.738;19.472;2022-08-18T15:34:07;28.50;57.90
18412;DHT22;27097;51.738;19.472;2022-08-18T15:36:35;28.50;58.40
18412;DHT22;27097;51.738;19.472;2022-08-18T15:39:02;28.50;58.80
18412;DHT22;27097;51.738;19.472;2022-08-18T15:41:32;28.50;58.10
18412;DHT22;27097;51.738;19.472;2022-08-18T15:44:00;28.40;57.80
18412;DHT22;27097;51.738;19.472;2022-08-18T15:46:30;28.40;57.90
18412;DHT22;27097;51.738;19.472;2022-08-18T15:48:58;28.40;57.50
18412;DHT22;27097;51.738;19.472;2022-08-18T15:51:25;28.40;57.70
18412;DHT22;27097;51.738;19.472;2022-08-18T15:53:52;28.40;57.70
18412;DHT22;27097;51.738;19.472;2022-08-18T15:56:20;28.50;58.10
18412;DHT22;27097;51.738;19.472;2022-08-18T15:58:51;28.50;58.60
18412;DHT22;27097;51.738;19.472;2022-08-18T16:01:21;28.40;58.20